sensor_id;sensor_type;location;lat;lon;timestamp;P1;durP1;ratioP1;P2;durP2;ratioP2
33987;SDS011;37428;53.580;-1.666;2023-03-04T00:02:03;14.35;;;2.28;;
33987;SDS011;37428;53.580;-1.666;2023-03-04T00:05:06;11.15;;;2.85;;
33987;SDS011;37428;53.580;-1.666;2023-03-04T00:08:10;6.65;;;2.35;;
33987;SDS011;37428;53.580;-1.666;2023-03-04T00:11:12;9.07;;;2.28;;
33987;SDS011;37428;53.580;-1.666;2023-03-04T00:14:14;11.30;;;3.10;;
33987;SDS011;37428;53.580;-1.666;2023-03-04T00:17:16;7.47;;;2.83;;
33987;SDS011;37428;53.580;-1.666;2023-03-04T00:20:20;8.70;;;3.28;;
33987;SDS011;37428;53.580;-1.666;2023-03-04T00:23:24;10.10;;;2.50;;
33987;SDS011;37428;53.580;-1.666;2023-03-04T00:26:40;9.18;;;2.45;;
33987;SDS011;37428;53.580;-1.666;2023-03-04T00:29:42;8.18;;;2.35;;
33987;SDS011;37428;53.580;-1.666;2023-03-04T00:32:44;7.35;;;2.20;;
33987;SDS011;37428;53.580;-1.666;2023-03-04T00:35:49;12.25;;;3.58;;
33987;SDS011;37428;53.580;-1.666;2023-03-04T00:39:01;10.35;;;2.88;;
33987;SDS011;37428;53.580;-1.666;2023-03-04T00:42:13;13.80;;;3.20;;
33987;SDS011;37428;53.580;-1.666;2023-03-04T00:45:17;11.82;;;4.47;;
33987;SDS011;37428;53.580;-1.666;2023-03-04T00:48:19;9.48;;;4.30;;
33987;SDS011;37428;53.580;-1.666;2023-03-04T00:51:25;10.35;;;3.55;;
33987;SDS011;37428;53.580;-1.666;2023-03-04T00:54:28;13.02;;;4.28;;
33987;SDS011;37428;53.580;-1.666;2023-03-04T00:57:31;19.52;;;3.85;;
33987;SDS011;37428;53.580;-1.666;2023-03-04T01:00:47;8.23;;;2.92;;
33987;SDS011;37428;53.580;-1.666;2023-03-04T01:03:55;7.28;;;2.22;;
33987;SDS011;37428;53.580;-1.666;2023-03-04T01:06:57;12.80;;;2.90;;
33987;SDS011;37428;53.580;-1.666;2023-03-04T01:10:01;9.18;;;2.83;;
33987;SDS011;37428;53.580;-1.666;2023-03-04T01:13:15;9.70;;;2.28;;
33987;SDS011;37428;53.580;-1.666;2023-03-04T01:16:21;6.53;;;2.58;;
33987;SDS011;37428;53.580;-1.666;2023-03-04T01:19:23;9.85;;;2.63;;
33987;SDS011;37428;53.580;-1.666;2023-03-04T01:22:25;4.55;;;2.05;;
33987;SDS011;37428;53.580;-1.666;2023-03-04T01:25:29;9.35;;;2.50;;
33987;SDS011;37428;53.580;-1.666;2023-03-04T01:28:46;7.97;;;2.85;;
33987;SDS011;37428;53.580;-1.666;2023-03-04T01:31:49;6.28;;;3.05;;
33987;SDS011;37428;53.580;-1.666;2023-03-04T01:34:52;12.57;;;3.30;;
33987;SDS011;37428;53.580;-1.666;2023-03-04T01:37:55;9.77;;;3.35;;
33987;SDS011;37428;53.580;-1.666;2023-03-04T01:41:21;4.72;;;3.10;;
33987;SDS011;37428;53.580;-1.666;2023-03-04T01:44:26;7.03;;;3.80;;
33987;SDS011;37428;53.580;-1.666;2023-03-04T01:47:32;6.85;;;3.25;;
33987;SDS011;37428;53.580;-1.666;2023-03-04T01:50:36;7.57;;;3.30;;
33987;SDS011;37428;53.580;-1.666;2023-03-04T01:53:39;7.38;;;3.58;;
33987;SDS011;37428;53.580;-1.666;2023-03-04T01:56:45;12.05;;;3.60;;
33987;SDS011;37428;53.580;-1.666;2023-03-04T02:03:28;13.10;;;3.58;;
33987;SDS011;37428;53.580;-1.666;2023-03-04T02:06:30;9.82;;;3.50;;
33987;SDS011;37428;53.580;-1.666;2023-03-04T02:09:46;11.95;;;4.47;;
33987;SDS011;37428;53.580;-1.666;2023-03-04T02:13:04;7.72;;;2.78;;
33987;SDS011;37428;53.580;-1.666;2023-03-04T02:16:13;11.38;;;3.42;;
33987;SDS011;37428;53.580;-1.666;2023-03-04T02:19:18;9.82;;;3.55;;
33987;SDS011;37428;53.580;-1.666;2023-03-04T02:22:35;7.15;;;3.50;;
33987;SDS011;37428;53.580;-1.666;2023-03-04T02:25:41;8.60;;;3.65;;
33987;SDS011;37428;53.580;-1.666;2023-03-04T02:28:51;8.63;;;3.95;;
33987;SDS011;37428;53.580;-1.666;2023-03-04T02:31:55;13.52;;;5.05;;
33987;SDS011;37428;53.580;-1.666;2023-03-04T02:35:03;8.18;;;4.82;;
33987;SDS011;37428;53.580;-1.666;2023-03-04T02:38:07;8.23;;;4.88;;
33987;SDS011;37428;53.580;-1.666;2023-03-04T02:41:15;6.88;;;4.25;;
33987;SDS011;37428;53.580;-1.666;2023-03-04T02:44:23;5.63;;;3.83;;
33987;SDS011;37428;53.580;-1.666;2023-03-04T02:47:26;9.18;;;4.28;;
33987;SDS011;37428;53.580;-1.666;2023-03-04T02:50:29;9.55;;;4.43;;
33987;SDS011;37428;53.580;-1.666;2023-03-04T02:53:49;10.70;;;4.40;;
33987;SDS011;37428;53.580;-1.666;2023-03-04T02:56:55;8.13;;;4.40;;
33987;SDS011;37428;53.580;-1.666;2023-03-04T03:00:01;9.77;;;4.63;;
33987;SDS011;37428;53.580;-1.666;2023-03-04T03:03:04;13.60;;;4.55;;
33987;SDS011;37428;53.580;-1.666;2023-03-04T03:06:07;10.80;;;4.25;;
33987;SDS011;37428;53.580;-1.666;2023-03-04T03:09:11;10.52;;;4.13;;
33987;SDS011;37428;53.580;-1.666;2023-03-04T03:12:15;10.75;;;4.07;;
33987;SDS011;37428;53.580;-1.666;2023-03-04T03:15:30;11.43;;;4.53;;
33987;SDS011;37428;53.580;-1.666;2023-03-04T03:18:34;8.77;;;4.60;;
33987;SDS011;37428;53.580;-1.666;2023-03-04T03:21:39;9.60;;;4.57;;
33987;SDS011;37428;53.580;-1.666;2023-03-04T03:24:41;10.68;;;3.92;;
33987;SDS011;37428;53.580;-1.666;2023-03-04T03:27:50;8.38;;;5.85;;
33987;SDS011;37428;53.580;-1.666;2023-03-04T03:30:54;5.43;;;3.95;;
33987;SDS011;37428;53.580;-1.666;2023-03-04T03:34:02;8.07;;;4.40;;
33987;SDS011;37428;53.580;-1.666;2023-03-04T03:37:23;13.07;;;5.00;;
33987;SDS011;37428;53.580;-1.666;2023-03-04T03:40:26;6.68;;;3.97;;
33987;SDS011;37428;53.580;-1.666;2023-03-04T03:43:30;8.13;;;3.55;;
33987;SDS011;37428;53.580;-1.666;2023-03-04T03:46:35;12.25;;;4.15;;
33987;SDS011;37428;53.580;-1.666;2023-03-04T03:49:37;9.23;;;4.03;;
33987;SDS011;37428;53.580;-1.666;2023-03-04T03:52:39;20.58;;;4.63;;
33987;SDS011;37428;53.580;-1.666;2023-03-04T03:55:49;6.63;;;3.67;;
33987;SDS011;37428;53.580;-1.666;2023-03-04T03:59:16;6.35;;;3.67;;
33987;SDS011;37428;53.580;-1.666;2023-03-04T04:02:47;7.20;;;3.45;;
33987;SDS011;37428;53.580;-1.666;2023-03-04T04:05:52;6.25;;;3.22;;
33987;SDS011;37428;53.580;-1.666;2023-03-04T04:09:08;8.48;;;3.28;;
33987;SDS011;37428;53.580;-1.666;2023-03-04T04:12:12;5.55;;;3.15;;
33987;SDS011;37428;53.580;-1.666;2023-03-04T04:15:21;8.45;;;3.17;;
33987;SDS011;37428;53.580;-1.666;2023-03-04T04:18:26;8.23;;;3.00;;
33987;SDS011;37428;53.580;-1.666;2023-03-04T04:21:48;8.40;;;3.45;;
33987;SDS011;37428;53.580;-1.666;2023-03-04T04:24:51;9.70;;;3.40;;
33987;SDS011;37428;53.580;-1.666;2023-03-04T04:27:53;9.32;;;3.13;;
33987;SDS011;37428;53.580;-1.666;2023-03-04T04:30:59;6.97;;;2.88;;
33987;SDS011;37428;53.580;-1.666;2023-03-04T04:34:03;6.32;;;3.15;;
33987;SDS011;37428;53.580;-1.666;2023-03-04T04:37:05;8.05;;;3.72;;
33987;SDS011;37428;53.580;-1.666;2023-03-04T04:40:07;7.88;;;2.80;;
33987;SDS011;37428;53.580;-1.666;2023-03-04T04:43:28;4.82;;;2.60;;
33987;SDS011;37428;53.580;-1.666;2023-03-04T04:49:55;8.95;;;2.92;;
33987;SDS011;37428;53.580;-1.666;2023-03-04T04:52:57;5.32;;;3.10;;
33987;SDS011;37428;53.580;-1.666;2023-03-04T04:55:59;10.00;;;2.42;;
33987;SDS011;37428;53.580;-1.666;2023-03-04T04:59:16;8.45;;;2.63;;
33987;SDS011;37428;53.580;-1.666;2023-03-04T05:02:27;7.15;;;2.40;;
33987;SDS011;37428;53.580;-1.666;2023-03-04T05:05:38;15.70;;;2.92;;
33987;SDS011;37428;53.580;-1.666;2023-03-04T05:08:41;6.55;;;2.63;;
33987;SDS011;37428;53.580;-1.666;2023-03-04T05:11:48;9.40;;;2.53;;
33987;SDS011;37428;53.580;-1.666;2023-03-04T05:14:50;7.10;;;2.38;;
33987;SDS011;37428;53.580;-1.666;2023-03-04T05:17:56;11.82;;;3.08;;
33987;SDS011;37428;53.580;-1.666;2023-03-04T05:27:44;12.95;;;5.60;;
33987;SDS011;37428;53.580;-1.666;2023-03-04T05:31:16;7.05;;;2.40;;
33987;SDS011;37428;53.580;-1.666;2023-03-04T05:34:09;10.82;;;2.10;;
33987;SDS011;37428;53.580;-1.666;2023-03-04T05:37:14;4.88;;;2.78;;
33987;SDS011;37428;53.580;-1.666;2023-03-04T05:40:46;4.03;;;1.95;;
33987;SDS011;37428;53.580;-1.666;2023-03-04T05:43:42;6.15;;;2.85;;
33987;SDS011;37428;53.580;-1.666;2023-03-04T05:47:19;12.23;;;3.10;;
33987;SDS011;37428;53.580;-1.666;2023-03-04T05:50:25;10.90;;;3.15;;
33987;SDS011;37428;53.580;-1.666;2023-03-04T05:53:35;6.43;;;2.25;;
33987;SDS011;37428;53.580;-1.666;2023-03-04T05:56:52;5.50;;;3.20;;
33987;SDS011;37428;53.580;-1.666;2023-03-04T06:00:20;9.38;;;3.08;;
33987;SDS011;37428;53.580;-1.666;2023-03-04T06:03:44;9.55;;;2.95;;
33987;SDS011;37428;53.580;-1.666;2023-03-04T06:06:48;8.30;;;3.42;;
33987;SDS011;37428;53.580;-1.666;2023-03-04T06:09:50;5.32;;;2.65;;
33987;SDS011;37428;53.580;-1.666;2023-03-04T06:12:52;3.55;;;2.38;;
33987;SDS011;37428;53.580;-1.666;2023-03-04T06:15:58;7.57;;;2.78;;
33987;SDS011;37428;53.580;-1.666;2023-03-04T06:19:03;7.80;;;2.78;;
33987;SDS011;37428;53.580;-1.666;2023-03-04T06:22:21;7.88;;;2.38;;
33987;SDS011;37428;53.580;-1.666;2023-03-04T06:25:56;6.53;;;2.33;;
33987;SDS011;37428;53.580;-1.666;2023-03-04T06:29:00;8.85;;;2.65;;
33987;SDS011;37428;53.580;-1.666;2023-03-04T06:32:24;7.80;;;2.90;;
33987;SDS011;37428;53.580;-1.666;2023-03-04T06:35:27;6.95;;;2.70;;
33987;SDS011;37428;53.580;-1.666;2023-03-04T06:38:58;3.83;;;2.03;;
33987;SDS011;37428;53.580;-1.666;2023-03-04T06:42:21;17.17;;;2.90;;
33987;SDS011;37428;53.580;-1.666;2023-03-04T06:45:24;9.07;;;2.55;;
33987;SDS011;37428;53.580;-1.666;2023-03-04T06:48:29;10.68;;;2.45;;
33987;SDS011;37428;53.580;-1.666;2023-03-04T06:51:31;8.00;;;2.50;;
33987;SDS011;37428;53.580;-1.666;2023-03-04T06:54:38;11.10;;;2.33;;
33987;SDS011;37428;53.580;-1.666;2023-03-04T06:57:54;4.22;;;1.90;;
33987;SDS011;37428;53.580;-1.666;2023-03-04T07:00:56;2.42;;;1.80;;
33987;SDS011;37428;53.580;-1.666;2023-03-04T07:04:01;5.18;;;1.95;;
33987;SDS011;37428;53.580;-1.666;2023-03-04T07:07:17;3.72;;;1.85;;
33987;SDS011;37428;53.580;-1.666;2023-03-04T07:10:19;4.75;;;2.15;;
33987;SDS011;37428;53.580;-1.666;2023-03-04T07:13:21;10.30;;;2.67;;
33987;SDS011;37428;53.580;-1.666;2023-03-04T07:16:52;7.90;;;1.85;;
33987;SDS011;37428;53.580;-1.666;2023-03-04T07:20:19;7.03;;;2.33;;
33987;SDS011;37428;53.580;-1.666;2023-03-04T07:23:57;8.05;;;2.55;;
33987;SDS011;37428;53.580;-1.666;2023-03-04T07:28:34;8.27;;;2.40;;
33987;SDS011;37428;53.580;-1.666;2023-03-04T07:30:43;7.20;;;2.45;;
33987;SDS011;37428;53.580;-1.666;2023-03-04T07:33:45;9.13;;;2.58;;
33987;SDS011;37428;53.580;-1.666;2023-03-04T07:36:51;12.50;;;3.28;;
33987;SDS011;37428;53.580;-1.666;2023-03-04T07:39:57;11.85;;;2.10;;
33987;SDS011;37428;53.580;-1.666;2023-03-04T07:42:59;6.97;;;2.65;;
33987;SDS011;37428;53.580;-1.666;2023-03-04T07:46:13;7.03;;;2.22;;
33987;SDS011;37428;53.580;-1.666;2023-03-04T07:49:22;5.07;;;1.58;;
33987;SDS011;37428;53.580;-1.666;2023-03-04T07:52:51;6.67;;;1.47;;
33987;SDS011;37428;53.580;-1.666;2023-03-04T07:55:53;11.10;;;2.28;;
33987;SDS011;37428;53.580;-1.666;2023-03-04T07:58:55;7.03;;;1.95;;
33987;SDS011;37428;53.580;-1.666;2023-03-04T08:02:51;10.43;;;2.25;;
33987;SDS011;37428;53.580;-1.666;2023-03-04T08:05:47;5.78;;;2.05;;
33987;SDS011;37428;53.580;-1.666;2023-03-04T08:09:11;12.57;;;2.03;;
33987;SDS011;37428;53.580;-1.666;2023-03-04T08:12:36;13.35;;;2.85;;
33987;SDS011;37428;53.580;-1.666;2023-03-04T08:15:40;8.75;;;2.78;;
33987;SDS011;37428;53.580;-1.666;2023-03-04T08:19:02;9.02;;;2.65;;
33987;SDS011;37428;53.580;-1.666;2023-03-04T08:22:25;6.60;;;2.85;;
33987;SDS011;37428;53.580;-1.666;2023-03-04T08:25:29;6.32;;;2.20;;
33987;SDS011;37428;53.580;-1.666;2023-03-04T08:28:45;5.85;;;2.03;;
33987;SDS011;37428;53.580;-1.666;2023-03-04T08:32:04;10.07;;;2.67;;
33987;SDS011;37428;53.580;-1.666;2023-03-04T08:35:09;10.15;;;2.55;;
33987;SDS011;37428;53.580;-1.666;2023-03-04T08:38:16;10.65;;;2.83;;
33987;SDS011;37428;53.580;-1.666;2023-03-04T08:41:19;6.03;;;2.17;;
33987;SDS011;37428;53.580;-1.666;2023-03-04T08:44:38;6.95;;;1.98;;
33987;SDS011;37428;53.580;-1.666;2023-03-04T08:47:54;12.45;;;2.45;;
33987;SDS011;37428;53.580;-1.666;2023-03-04T08:50:57;7.95;;;1.90;;
33987;SDS011;37428;53.580;-1.666;2023-03-04T08:53:59;4.50;;;1.88;;
33987;SDS011;37428;53.580;-1.666;2023-03-04T08:57:05;7.35;;;2.13;;
33987;SDS011;37428;53.580;-1.666;2023-03-04T09:00:08;5.28;;;1.70;;
33987;SDS011;37428;53.580;-1.666;2023-03-04T09:03:11;10.02;;;2.15;;
33987;SDS011;37428;53.580;-1.666;2023-03-04T09:06:14;9.88;;;2.17;;
33987;SDS011;37428;53.580;-1.666;2023-03-04T09:09:17;7.25;;;1.70;;
33987;SDS011;37428;53.580;-1.666;2023-03-04T09:12:22;6.45;;;1.70;;
33987;SDS011;37428;53.580;-1.666;2023-03-04T09:15:25;13.38;;;2.35;;
33987;SDS011;37428;53.580;-1.666;2023-03-04T09:18:27;13.57;;;2.83;;
33987;SDS011;37428;53.580;-1.666;2023-03-04T09:21:29;6.88;;;2.03;;
33987;SDS011;37428;53.580;-1.666;2023-03-04T09:24:33;9.35;;;1.85;;
33987;SDS011;37428;53.580;-1.666;2023-03-04T09:27:37;7.95;;;1.98;;
33987;SDS011;37428;53.580;-1.666;2023-03-04T09:30:39;7.25;;;1.73;;
33987;SDS011;37428;53.580;-1.666;2023-03-04T09:33:42;9.85;;;1.80;;
33987;SDS011;37428;53.580;-1.666;2023-03-04T09:36:44;6.93;;;1.67;;
33987;SDS011;37428;53.580;-1.666;2023-03-04T09:40:05;7.72;;;2.20;;
33987;SDS011;37428;53.580;-1.666;2023-03-04T09:43:13;8.77;;;2.15;;
33987;SDS011;37428;53.580;-1.666;2023-03-04T09:46:21;12.38;;;2.30;;
33987;SDS011;37428;53.580;-1.666;2023-03-04T09:49:31;11.80;;;2.08;;
33987;SDS011;37428;53.580;-1.666;2023-03-04T09:52:40;5.20;;;1.90;;
33987;SDS011;37428;53.580;-1.666;2023-03-04T09:55:53;8.48;;;2.47;;
33987;SDS011;37428;53.580;-1.666;2023-03-04T09:58:59;8.52;;;2.50;;
33987;SDS011;37428;53.580;-1.666;2023-03-04T10:02:15;6.28;;;1.98;;
33987;SDS011;37428;53.580;-1.666;2023-03-04T10:05:35;9.43;;;3.13;;
33987;SDS011;37428;53.580;-1.666;2023-03-04T10:09:22;9.52;;;2.72;;
33987;SDS011;37428;53.580;-1.666;2023-03-04T10:12:12;8.15;;;1.80;;
33987;SDS011;37428;53.580;-1.666;2023-03-04T10:15:38;5.35;;;2.53;;
33987;SDS011;37428;53.580;-1.666;2023-03-04T10:18:44;5.75;;;2.40;;
33987;SDS011;37428;53.580;-1.666;2023-03-04T10:21:49;9.95;;;2.72;;
33987;SDS011;37428;53.580;-1.666;2023-03-04T10:24:53;6.93;;;2.70;;
33987;SDS011;37428;53.580;-1.666;2023-03-04T10:27:58;7.90;;;2.53;;
33987;SDS011;37428;53.580;-1.666;2023-03-04T10:31:05;7.00;;;2.78;;
33987;SDS011;37428;53.580;-1.666;2023-03-04T10:34:15;6.55;;;2.15;;
33987;SDS011;37428;53.580;-1.666;2023-03-04T10:37:18;21.27;;;3.83;;
33987;SDS011;37428;53.580;-1.666;2023-03-04T10:40:21;7.18;;;1.98;;
33987;SDS011;37428;53.580;-1.666;2023-03-04T10:43:26;17.25;;;2.97;;
33987;SDS011;37428;53.580;-1.666;2023-03-04T10:46:30;9.50;;;2.80;;
33987;SDS011;37428;53.580;-1.666;2023-03-04T10:49:32;6.97;;;3.05;;
33987;SDS011;37428;53.580;-1.666;2023-03-04T10:52:49;10.48;;;3.30;;
33987;SDS011;37428;53.580;-1.666;2023-03-04T10:55:54;10.77;;;2.72;;
33987;SDS011;37428;53.580;-1.666;2023-03-04T10:58:57;9.30;;;2.60;;
33987;SDS011;37428;53.580;-1.666;2023-03-04T11:02:42;5.82;;;2.60;;
33987;SDS011;37428;53.580;-1.666;2023-03-04T11:05:45;6.05;;;2.90;;
33987;SDS011;37428;53.580;-1.666;2023-03-04T11:08:54;7.75;;;2.75;;
33987;SDS011;37428;53.580;-1.666;2023-03-04T11:11:58;6.32;;;2.45;;
33987;SDS011;37428;53.580;-1.666;2023-03-04T11:15:01;6.22;;;3.03;;
33987;SDS011;37428;53.580;-1.666;2023-03-04T11:18:09;10.57;;;3.17;;
33987;SDS011;37428;53.580;-1.666;2023-03-04T11:21:14;8.82;;;2.72;;
33987;SDS011;37428;53.580;-1.666;2023-03-04T11:24:20;11.20;;;2.97;;
33987;SDS011;37428;53.580;-1.666;2023-03-04T11:27:29;13.45;;;3.15;;
33987;SDS011;37428;53.580;-1.666;2023-03-04T11:30:40;10.32;;;3.60;;
33987;SDS011;37428;53.580;-1.666;2023-03-04T11:33:47;13.65;;;3.08;;
33987;SDS011;37428;53.580;-1.666;2023-03-04T11:36:54;4.65;;;2.53;;
33987;SDS011;37428;53.580;-1.666;2023-03-04T11:40:11;11.68;;;3.25;;
33987;SDS011;37428;53.580;-1.666;2023-03-04T11:43:18;8.32;;;3.03;;
33987;SDS011;37428;53.580;-1.666;2023-03-04T11:53:27;9.27;;;2.70;;
33987;SDS011;37428;53.580;-1.666;2023-03-04T11:56:52;6.97;;;2.80;;
33987;SDS011;37428;53.580;-1.666;2023-03-04T12:00:09;11.02;;;2.58;;
33987;SDS011;37428;53.580;-1.666;2023-03-04T12:07:19;9.32;;;2.78;;
33987;SDS011;37428;53.580;-1.666;2023-03-04T12:10:35;9.70;;;3.55;;
33987;SDS011;37428;53.580;-1.666;2023-03-04T12:13:57;9.60;;;2.88;;
33987;SDS011;37428;53.580;-1.666;2023-03-04T12:17:40;11.55;;;3.38;;
33987;SDS011;37428;53.580;-1.666;2023-03-04T12:20:59;4.78;;;2.42;;
33987;SDS011;37428;53.580;-1.666;2023-03-04T12:24:26;7.97;;;3.20;;
33987;SDS011;37428;53.580;-1.666;2023-03-04T12:27:38;10.93;;;3.05;;
33987;SDS011;37428;53.580;-1.666;2023-03-04T12:30:51;6.10;;;2.75;;
33987;SDS011;37428;53.580;-1.666;2023-03-04T12:37:42;9.13;;;2.67;;
33987;SDS011;37428;53.580;-1.666;2023-03-04T12:40:55;11.15;;;3.08;;
33987;SDS011;37428;53.580;-1.666;2023-03-04T12:44:10;8.05;;;3.47;;
33987;SDS011;37428;53.580;-1.666;2023-03-04T12:47:20;10.48;;;3.55;;
33987;SDS011;37428;53.580;-1.666;2023-03-04T12:50:31;9.10;;;2.85;;
33987;SDS011;37428;53.580;-1.666;2023-03-04T12:53:42;9.30;;;3.92;;
33987;SDS011;37428;53.580;-1.666;2023-03-04T12:56:57;5.75;;;2.95;;
33987;SDS011;37428;53.580;-1.666;2023-03-04T13:00:15;12.32;;;2.60;;
33987;SDS011;37428;53.580;-1.666;2023-03-04T13:03:39;7.95;;;2.45;;
33987;SDS011;37428;53.580;-1.666;2023-03-04T13:06:45;4.60;;;2.40;;
33987;SDS011;37428;53.580;-1.666;2023-03-04T13:10:00;11.48;;;3.10;;
33987;SDS011;37428;53.580;-1.666;2023-03-04T13:13:32;10.73;;;2.50;;
33987;SDS011;37428;53.580;-1.666;2023-03-04T13:16:37;6.15;;;2.42;;
33987;SDS011;37428;53.580;-1.666;2023-03-04T13:19:43;9.68;;;2.83;;
33987;SDS011;37428;53.580;-1.666;2023-03-04T13:22:51;6.70;;;2.58;;
33987;SDS011;37428;53.580;-1.666;2023-03-04T13:26:15;5.57;;;2.72;;
33987;SDS011;37428;53.580;-1.666;2023-03-04T13:29:48;8.75;;;2.60;;
33987;SDS011;37428;53.580;-1.666;2023-03-04T13:32:56;5.97;;;2.63;;
33987;SDS011;37428;53.580;-1.666;2023-03-04T13:39:03;4.40;;;2.15;;
33987;SDS011;37428;53.580;-1.666;2023-03-04T13:42:37;8.18;;;2.50;;
33987;SDS011;37428;53.580;-1.666;2023-03-04T13:45:46;9.05;;;3.10;;
33987;SDS011;37428;53.580;-1.666;2023-03-04T13:48:57;5.15;;;2.60;;
33987;SDS011;37428;53.580;-1.666;2023-03-04T13:55:45;9.00;;;3.38;;
33987;SDS011;37428;53.580;-1.666;2023-03-04T14:02:35;7.03;;;2.58;;
33987;SDS011;37428;53.580;-1.666;2023-03-04T14:05:37;8.40;;;3.08;;
33987;SDS011;37428;53.580;-1.666;2023-03-04T14:08:40;8.80;;;2.75;;
33987;SDS011;37428;53.580;-1.666;2023-03-04T14:11:42;16.73;;;2.75;;
33987;SDS011;37428;53.580;-1.666;2023-03-04T14:14:46;5.78;;;2.92;;
33987;SDS011;37428;53.580;-1.666;2023-03-04T14:17:55;12.20;;;5.25;;
33987;SDS011;37428;53.580;-1.666;2023-03-04T14:21:00;5.43;;;2.83;;
33987;SDS011;37428;53.580;-1.666;2023-03-04T14:24:06;5.60;;;3.13;;
33987;SDS011;37428;53.580;-1.666;2023-03-04T14:27:12;11.15;;;2.70;;
33987;SDS011;37428;53.580;-1.666;2023-03-04T14:30:32;8.63;;;2.47;;
33987;SDS011;37428;53.580;-1.666;2023-03-04T14:33:49;8.93;;;2.65;;
33987;SDS011;37428;53.580;-1.666;2023-03-04T14:37:30;17.73;;;4.85;;
33987;SDS011;37428;53.580;-1.666;2023-03-04T14:41:07;20.45;;;3.78;;
33987;SDS011;37428;53.580;-1.666;2023-03-04T14:44:19;7.70;;;2.92;;
33987;SDS011;37428;53.580;-1.666;2023-03-04T14:47:31;13.05;;;3.22;;
33987;SDS011;37428;53.580;-1.666;2023-03-04T14:50:46;10.02;;;2.72;;
33987;SDS011;37428;53.580;-1.666;2023-03-04T14:57:45;11.20;;;2.58;;
33987;SDS011;37428;53.580;-1.666;2023-03-04T15:01:01;10.18;;;2.95;;
33987;SDS011;37428;53.580;-1.666;2023-03-04T15:04:05;11.88;;;3.15;;
33987;SDS011;37428;53.580;-1.666;2023-03-04T15:07:13;8.00;;;3.38;;
33987;SDS011;37428;53.580;-1.666;2023-03-04T15:10:25;8.55;;;2.30;;
33987;SDS011;37428;53.580;-1.666;2023-03-04T15:13:37;7.15;;;2.88;;
33987;SDS011;37428;53.580;-1.666;2023-03-04T15:16:53;5.70;;;2.70;;
33987;SDS011;37428;53.580;-1.666;2023-03-04T15:20:30;6.55;;;2.40;;
33987;SDS011;37428;53.580;-1.666;2023-03-04T15:23:32;10.30;;;5.05;;
33987;SDS011;37428;53.580;-1.666;2023-03-04T15:26:37;8.35;;;3.60;;
33987;SDS011;37428;53.580;-1.666;2023-03-04T15:29:40;6.97;;;3.28;;
33987;SDS011;37428;53.580;-1.666;2023-03-04T15:32:43;4.80;;;2.90;;
33987;SDS011;37428;53.580;-1.666;2023-03-04T15:35:48;5.70;;;3.13;;
33987;SDS011;37428;53.580;-1.666;2023-03-04T15:38:53;12.32;;;2.47;;
33987;SDS011;37428;53.580;-1.666;2023-03-04T15:41:55;6.38;;;2.42;;
33987;SDS011;37428;53.580;-1.666;2023-03-04T15:44:57;6.18;;;2.55;;
33987;SDS011;37428;53.580;-1.666;2023-03-04T15:47:59;8.00;;;3.20;;
33987;SDS011;37428;53.580;-1.666;2023-03-04T15:51:06;9.70;;;3.20;;
33987;SDS011;37428;53.580;-1.666;2023-03-04T15:54:13;6.63;;;2.30;;
33987;SDS011;37428;53.580;-1.666;2023-03-04T15:57:18;8.68;;;3.00;;
33987;SDS011;37428;53.580;-1.666;2023-03-04T16:00:23;6.35;;;2.22;;
33987;SDS011;37428;53.580;-1.666;2023-03-04T16:06:30;5.80;;;2.90;;
33987;SDS011;37428;53.580;-1.666;2023-03-04T16:09:34;5.78;;;2.67;;
33987;SDS011;37428;53.580;-1.666;2023-03-04T16:12:36;5.40;;;2.65;;
33987;SDS011;37428;53.580;-1.666;2023-03-04T16:15:38;6.85;;;2.95;;
33987;SDS011;37428;53.580;-1.666;2023-03-04T16:18:42;6.43;;;2.45;;
33987;SDS011;37428;53.580;-1.666;2023-03-04T16:21:46;5.95;;;3.28;;
33987;SDS011;37428;53.580;-1.666;2023-03-04T16:24:48;7.78;;;2.80;;
33987;SDS011;37428;53.580;-1.666;2023-03-04T16:27:51;10.40;;;2.50;;
33987;SDS011;37428;53.580;-1.666;2023-03-04T16:30:55;5.75;;;2.22;;
33987;SDS011;37428;53.580;-1.666;2023-03-04T16:33:57;5.72;;;2.28;;
33987;SDS011;37428;53.580;-1.666;2023-03-04T16:37:04;5.10;;;2.88;;
33987;SDS011;37428;53.580;-1.666;2023-03-04T16:40:13;5.20;;;2.40;;
33987;SDS011;37428;53.580;-1.666;2023-03-04T16:43:17;9.80;;;2.60;;
33987;SDS011;37428;53.580;-1.666;2023-03-04T16:46:19;5.93;;;2.70;;
33987;SDS011;37428;53.580;-1.666;2023-03-04T16:49:21;6.47;;;2.53;;
33987;SDS011;37428;53.580;-1.666;2023-03-04T16:52:26;7.00;;;2.88;;
33987;SDS011;37428;53.580;-1.666;2023-03-04T16:55:30;6.15;;;2.88;;
33987;SDS011;37428;53.580;-1.666;2023-03-04T16:58:32;8.80;;;3.03;;
33987;SDS011;37428;53.580;-1.666;2023-03-04T17:01:34;5.10;;;2.85;;
33987;SDS011;37428;53.580;-1.666;2023-03-04T17:04:37;4.65;;;2.95;;
33987;SDS011;37428;53.580;-1.666;2023-03-04T17:07:41;7.53;;;2.90;;
33987;SDS011;37428;53.580;-1.666;2023-03-04T17:10:43;4.93;;;2.47;;
33987;SDS011;37428;53.580;-1.666;2023-03-04T17:16:48;4.70;;;2.78;;
33987;SDS011;37428;53.580;-1.666;2023-03-04T17:19:50;8.80;;;3.25;;
33987;SDS011;37428;53.580;-1.666;2023-03-04T17:22:53;7.63;;;2.58;;
33987;SDS011;37428;53.580;-1.666;2023-03-04T17:25:56;8.82;;;3.22;;
33987;SDS011;37428;53.580;-1.666;2023-03-04T17:28:59;7.40;;;3.03;;
33987;SDS011;37428;53.580;-1.666;2023-03-04T17:32:01;6.55;;;2.90;;
33987;SDS011;37428;53.580;-1.666;2023-03-04T17:35:12;9.60;;;3.67;;
33987;SDS011;37428;53.580;-1.666;2023-03-04T17:38:16;6.13;;;3.30;;
33987;SDS011;37428;53.580;-1.666;2023-03-04T17:41:18;7.05;;;3.50;;
33987;SDS011;37428;53.580;-1.666;2023-03-04T17:47:22;9.75;;;3.80;;
33987;SDS011;37428;53.580;-1.666;2023-03-04T17:50:25;10.43;;;3.72;;
33987;SDS011;37428;53.580;-1.666;2023-03-04T17:53:28;5.20;;;3.60;;
33987;SDS011;37428;53.580;-1.666;2023-03-04T17:56:31;8.30;;;4.60;;
33987;SDS011;37428;53.580;-1.666;2023-03-04T17:59:34;6.60;;;3.65;;
33987;SDS011;37428;53.580;-1.666;2023-03-04T18:02:36;7.70;;;4.60;;
33987;SDS011;37428;53.580;-1.666;2023-03-04T18:05:38;10.18;;;4.75;;
33987;SDS011;37428;53.580;-1.666;2023-03-04T18:08:41;6.40;;;4.20;;
33987;SDS011;37428;53.580;-1.666;2023-03-04T18:11:44;7.53;;;3.90;;
33987;SDS011;37428;53.580;-1.666;2023-03-04T18:14:46;9.68;;;4.43;;
33987;SDS011;37428;53.580;-1.666;2023-03-04T18:17:48;7.80;;;4.95;;
33987;SDS011;37428;53.580;-1.666;2023-03-04T18:20:55;6.75;;;4.18;;
33987;SDS011;37428;53.580;-1.666;2023-03-04T18:23:59;14.75;;;5.03;;
33987;SDS011;37428;53.580;-1.666;2023-03-04T18:27:01;11.60;;;5.35;;
33987;SDS011;37428;53.580;-1.666;2023-03-04T18:30:04;8.50;;;4.80;;
33987;SDS011;37428;53.580;-1.666;2023-03-04T18:33:07;7.90;;;3.95;;
33987;SDS011;37428;53.580;-1.666;2023-03-04T18:36:09;8.02;;;5.05;;
33987;SDS011;37428;53.580;-1.666;2023-03-04T18:39:13;6.53;;;3.92;;
33987;SDS011;37428;53.580;-1.666;2023-03-04T18:42:16;6.75;;;3.67;;
33987;SDS011;37428;53.580;-1.666;2023-03-04T18:45:18;6.80;;;3.70;;
33987;SDS011;37428;53.580;-1.666;2023-03-04T18:48:21;5.10;;;4.00;;
33987;SDS011;37428;53.580;-1.666;2023-03-04T18:51:23;12.98;;;4.65;;
33987;SDS011;37428;53.580;-1.666;2023-03-04T18:54:27;9.32;;;4.40;;
33987;SDS011;37428;53.580;-1.666;2023-03-04T18:57:29;9.02;;;4.38;;
33987;SDS011;37428;53.580;-1.666;2023-03-04T19:00:31;6.70;;;3.22;;
33987;SDS011;37428;53.580;-1.666;2023-03-04T19:06:37;6.90;;;3.65;;
33987;SDS011;37428;53.580;-1.666;2023-03-04T19:09:41;11.38;;;4.47;;
33987;SDS011;37428;53.580;-1.666;2023-03-04T19:12:43;5.03;;;3.17;;
33987;SDS011;37428;53.580;-1.666;2023-03-04T19:15:45;5.50;;;3.63;;
33987;SDS011;37428;53.580;-1.666;2023-03-04T19:18:47;4.93;;;3.40;;
33987;SDS011;37428;53.580;-1.666;2023-03-04T19:21:49;6.63;;;3.28;;
33987;SDS011;37428;53.580;-1.666;2023-03-04T19:24:53;6.30;;;3.13;;
33987;SDS011;37428;53.580;-1.666;2023-03-04T19:27:55;3.65;;;3.30;;
33987;SDS011;37428;53.580;-1.666;2023-03-04T19:30:57;7.05;;;3.13;;